createdAt,value
2018-08-12T00:00:26.848Z,13.30
2018-08-12T00:03:00.632Z,13.30
2018-08-12T00:05:29.516Z,13.40
2018-08-12T00:08:00.351Z,13.30
2018-08-12T00:10:29.803Z,13.20
2018-08-12T00:12:58.639Z,13.20
2018-08-12T00:15:27.504Z,13.30
2018-08-12T00:17:57.012Z,13.50
2018-08-12T00:20:27.621Z,13.50
2018-08-12T00:23:04.222Z,13.50
2018-08-12T00:25:33.101Z,13.50
2018-08-12T00:28:04.121Z,13.40
2018-08-12T00:30:32.970Z,13.40
2018-08-12T00:33:04.364Z,13.40
2018-08-12T00:35:35.172Z,13.30
2018-08-12T00:38:04.643Z,13.20
2018-08-12T00:40:36.013Z,13.10
2018-08-12T00:43:16.190Z,13.10
2018-08-12T00:45:46.170Z,13.10
2018-08-12T00:48:15.071Z,13.10
2018-08-12T00:50:46.123Z,13.00
2018-08-12T00:53:14.919Z,13.10
2018-08-12T00:55:44.980Z,13.10
2018-08-12T00:58:14.776Z,13.00
2018-08-12T01:00:44.646Z,13.10
2018-08-12T01:03:13.478Z,13.10
2018-08-12T01:05:42.375Z,13.10
2018-08-12T01:08:12.686Z,13.10
2018-08-12T01:12:01.308Z,13.00
2018-08-12T01:14:30.488Z,13.00
2018-08-12T01:16:59.350Z,13.00
2018-08-12T01:19:29.360Z,13.00
2018-08-12T01:21:58.221Z,12.90
2018-08-12T01:24:27.063Z,12.90
2018-08-12T01:26:58.620Z,12.90
2018-08-12T01:29:27.772Z,12.90
2018-08-12T01:31:58.147Z,12.90
2018-08-12T01:34:26.924Z,12.90
2018-08-12T01:36:56.771Z,12.90
2018-08-12T01:39:27.288Z,12.90
2018-08-12T01:41:56.219Z,12.90
2018-08-12T01:44:25.038Z,12.90
2018-08-12T01:46:54.534Z,12.90
2018-08-12T01:49:23.926Z,12.80
2018-08-12T01:51:54.618Z,12.70
2018-08-12T01:54:23.450Z,12.80
2018-08-12T01:56:52.299Z,12.80
2018-08-12T01:59:21.392Z,12.80
2018-08-12T02:01:50.179Z,12.70
2018-08-12T02:04:20.146Z,12.60
2018-08-12T02:06:49.174Z,12.50
2018-08-12T02:09:19.555Z,12.50
2018-08-12T02:11:48.554Z,12.50
2018-08-12T02:14:17.322Z,12.60
2018-08-12T02:16:46.133Z,12.60
2018-08-12T02:19:14.913Z,12.60
2018-08-12T02:21:43.743Z,12.50
2018-08-12T02:24:12.580Z,12.40
2018-08-12T02:26:41.614Z,12.30
2018-08-12T02:29:10.432Z,12.20
2018-08-12T02:31:39.319Z,12.20
2018-08-12T02:34:09.049Z,12.10
2018-08-12T02:36:37.868Z,12.00
2018-08-12T02:39:08.986Z,12.00
2018-08-12T02:41:37.989Z,11.90
2018-08-12T02:44:06.878Z,11.90
2018-08-12T02:46:35.716Z,11.90
2018-08-12T02:49:04.916Z,11.90
2018-08-12T02:51:33.909Z,11.80
2018-08-12T02:54:03.960Z,11.80
2018-08-12T02:56:33.633Z,11.80
2018-08-12T02:59:02.497Z,11.80
2018-08-12T03:01:31.346Z,11.70
2018-08-12T03:04:01.159Z,11.60
2018-08-12T03:06:30.637Z,11.60
2018-08-12T03:09:01.514Z,11.50
2018-08-12T03:11:31.483Z,11.40
2018-08-12T03:14:00.527Z,11.40
2018-08-12T03:16:29.377Z,11.50
2018-08-12T03:18:58.172Z,11.50
2018-08-12T03:21:26.942Z,11.40
2018-08-12T03:23:55.766Z,11.30
2018-08-12T03:26:24.864Z,11.10
2018-08-12T03:28:53.728Z,11.10
2018-08-12T03:31:22.590Z,11.10
2018-08-12T03:33:52.351Z,11.00
2018-08-12T03:36:21.201Z,11.00
2018-08-12T03:38:50.734Z,11.00
2018-08-12T03:41:19.794Z,11.00
2018-08-12T03:43:48.650Z,11.00
2018-08-12T03:46:21.992Z,11.10
2018-08-12T03:48:50.876Z,11.10
2018-08-12T03:51:19.687Z,11.10
2018-08-12T03:53:48.616Z,10.90
2018-08-12T03:56:17.426Z,10.90
2018-08-12T03:58:47.274Z,10.90
2018-08-12T04:01:16.244Z,10.90
2018-08-12T04:03:45.019Z,10.90
2018-08-12T04:06:15.001Z,10.90
2018-08-12T04:08:44.822Z,11.00
2018-08-12T04:11:13.705Z,11.00
2018-08-12T04:13:42.576Z,11.00
2018-08-12T04:16:11.395Z,11.00
2018-08-12T04:18:40.214Z,10.90
2018-08-12T04:21:09.005Z,10.90
2018-08-12T04:23:37.844Z,11.00
2018-08-12T04:26:06.747Z,11.00
2018-08-12T04:28:35.602Z,11.10
2018-08-12T04:31:05.737Z,11.20
2018-08-12T04:33:35.262Z,11.10
2018-08-12T04:36:04.346Z,11.10
2018-08-12T04:38:33.448Z,11.00
2018-08-12T04:41:02.352Z,11.00
2018-08-12T04:43:31.139Z,11.20
2018-08-12T04:46:00.218Z,11.30
2018-08-12T04:48:29.025Z,11.30
2018-08-12T04:50:58.062Z,11.50
2018-08-12T04:53:26.910Z,11.50
2018-08-12T04:55:55.824Z,11.60
2018-08-12T04:58:24.853Z,11.80
2018-08-12T05:00:53.696Z,11.90
2018-08-12T05:03:22.595Z,12.00
2018-08-12T05:05:56.827Z,12.10
2018-08-12T05:08:25.684Z,12.20
2018-08-12T05:10:54.655Z,12.30
2018-08-12T05:13:23.584Z,12.40
2018-08-12T05:15:53.425Z,12.40
2018-08-12T05:18:27.322Z,12.50
2018-08-12T05:20:56.500Z,12.50
2018-08-12T05:23:25.518Z,12.60
2018-08-12T05:25:54.353Z,12.80
2018-08-12T05:28:25.118Z,12.90
2018-08-12T05:30:54.034Z,13.00
2018-08-12T05:33:22.825Z,13.10
2018-08-12T05:35:51.698Z,13.40
2018-08-12T05:38:20.542Z,13.60
2018-08-12T05:40:50.262Z,13.80
2018-08-12T05:43:19.696Z,14.10
2018-08-12T05:45:48.525Z,14.20
2018-08-12T05:48:17.365Z,14.60
2018-08-12T05:50:46.653Z,15.00
2018-08-12T05:53:15.463Z,15.50
2018-08-12T05:55:44.387Z,15.80
2018-08-12T05:58:14.000Z,16.00
2018-08-12T06:00:42.872Z,16.50
2018-08-12T06:03:11.803Z,16.40
2018-08-12T06:05:40.574Z,16.80
2018-08-12T06:08:09.406Z,16.80
2018-08-12T06:10:38.220Z,17.30
2018-08-12T06:13:07.182Z,17.60
2018-08-12T06:15:36.061Z,17.60
2018-08-12T06:18:06.041Z,18.10
2018-08-12T06:20:34.925Z,18.60
2018-08-12T06:23:03.969Z,18.70
2018-08-12T06:25:33.864Z,19.00
2018-08-12T06:28:03.243Z,19.20
2018-08-12T06:30:38.146Z,19.60
2018-08-12T06:33:07.223Z,19.90
2018-08-12T06:35:36.047Z,20.10
2018-08-12T06:38:05.377Z,20.40
2018-08-12T06:40:34.241Z,20.50
2018-08-12T06:43:06.682Z,19.90
2018-08-12T06:45:36.127Z,20.10
2018-08-12T06:48:06.434Z,20.10
2018-08-12T06:50:35.326Z,20.80
2018-08-12T06:53:04.198Z,21.60
2018-08-12T06:55:33.095Z,22.50
2018-08-12T06:58:02.246Z,22.30
2018-08-12T07:00:31.868Z,22.60
2018-08-12T07:03:00.720Z,22.40
2018-08-12T07:05:30.656Z,22.40
2018-08-12T07:08:00.230Z,22.50
2018-08-12T07:10:31.018Z,23.50
2018-08-12T07:13:00.523Z,24.20
2018-08-12T07:15:30.046Z,24.80
2018-08-12T07:18:00.535Z,25.00
2018-08-12T07:20:29.420Z,24.70
2018-08-12T07:23:00.840Z,24.50
2018-08-12T07:25:29.622Z,24.70
2018-08-12T07:27:58.495Z,24.40
2018-08-12T07:30:28.155Z,24.80
2018-08-12T07:32:57.008Z,25.00
2018-08-12T07:35:27.494Z,25.10
2018-08-12T07:37:57.377Z,25.20
2018-08-12T07:40:26.294Z,25.20
2018-08-12T07:42:56.091Z,25.30
2018-08-12T07:45:25.273Z,25.80
2018-08-12T07:47:54.257Z,26.70
2018-08-12T07:50:23.583Z,26.60
2018-08-12T07:52:55.387Z,26.20
2018-08-12T07:55:24.371Z,26.10
2018-08-12T07:57:53.158Z,25.60
2018-08-12T08:00:24.301Z,24.80
2018-08-12T08:02:53.195Z,25.60
2018-08-12T08:05:23.872Z,25.60
2018-08-12T08:07:53.644Z,25.50
2018-08-12T08:10:23.668Z,25.90
2018-08-12T08:12:53.336Z,26.30
2018-08-12T08:15:24.295Z,26.80
2018-08-12T08:24:54.133Z,28.60
2018-08-12T08:27:23.320Z,28.40
2018-08-12T08:29:52.963Z,28.80
2018-08-12T08:32:23.737Z,28.60
2018-08-12T08:34:53.292Z,28.50
2018-08-12T08:37:25.130Z,29.30
2018-08-12T08:39:55.411Z,29.90
2018-08-12T08:42:26.722Z,30.90
2018-08-12T08:44:55.640Z,30.90
2018-08-12T08:47:25.981Z,32.10
2018-08-12T08:49:56.975Z,32.10
2018-08-12T08:52:28.322Z,31.60
2018-08-12T08:54:57.926Z,31.90
2018-08-12T08:57:27.312Z,31.90
2018-08-12T08:59:58.405Z,32.10
2018-08-12T09:05:37.401Z,32.50
2018-08-12T09:08:08.537Z,32.50
2018-08-12T09:10:37.778Z,32.80
2018-08-12T09:13:09.114Z,32.40
2018-08-12T09:15:40.318Z,33.60
2018-08-12T09:18:09.856Z,33.90
2018-08-12T09:20:39.344Z,34.60
2018-08-12T09:23:11.660Z,34.10
2018-08-12T09:25:41.563Z,34.10
2018-08-12T09:28:14.790Z,34.90
2018-08-12T09:30:46.064Z,35.40
2018-08-12T09:33:15.599Z,35.30
2018-08-12T09:35:50.347Z,35.10
2018-08-12T09:38:23.137Z,35.00
2018-08-12T09:40:54.045Z,34.80
2018-08-12T09:43:25.975Z,34.50
2018-08-12T09:45:57.909Z,34.10
2018-08-12T09:48:29.059Z,34.00
2018-08-12T09:51:00.206Z,34.30
2018-08-12T09:53:29.109Z,34.30
2018-08-12T09:56:01.584Z,34.60
2018-08-12T09:58:31.420Z,34.00
2018-08-12T10:01:04.063Z,33.40
2018-08-12T10:03:34.146Z,33.90
2018-08-12T10:06:04.707Z,34.90
2018-08-12T10:08:34.420Z,35.70
2018-08-12T10:11:05.147Z,35.00
2018-08-12T10:13:36.119Z,34.80
2018-08-12T10:16:05.772Z,33.90
2018-08-12T10:18:34.807Z,34.40
2018-08-12T10:21:04.229Z,34.40
2018-08-12T10:23:36.807Z,33.50
2018-08-12T10:26:08.136Z,33.70
2018-08-12T10:28:40.192Z,33.20
2018-08-12T10:31:11.189Z,32.90
2018-08-12T10:33:40.209Z,33.20
2018-08-12T10:36:09.729Z,34.00
2018-08-12T10:38:39.192Z,33.70
2018-08-12T10:41:08.454Z,33.70
2018-08-12T10:43:38.648Z,33.80
2018-08-12T10:46:17.194Z,33.70
2018-08-12T10:48:47.511Z,34.40
2018-08-12T10:51:17.297Z,34.90
2018-08-12T10:53:49.328Z,35.40
2018-08-12T10:56:19.028Z,34.80
2018-08-12T10:58:48.083Z,34.60
2018-08-12T11:01:19.405Z,33.80
2018-08-12T11:03:49.509Z,34.60
2018-08-12T11:06:24.595Z,34.80
2018-08-12T11:08:54.510Z,34.50
2018-08-12T11:11:24.454Z,34.90
2018-08-12T11:13:53.494Z,34.80
2018-08-12T11:16:25.795Z,34.60
2018-08-12T11:18:57.127Z,34.70
2018-08-12T11:21:29.392Z,34.10
2018-08-12T11:23:58.954Z,34.50
2018-08-12T11:26:29.730Z,33.10
2018-08-12T11:28:59.419Z,32.90
2018-08-12T11:31:28.250Z,32.70
2018-08-12T11:34:01.797Z,32.80
2018-08-12T11:36:32.401Z,32.00
2018-08-12T11:39:09.504Z,31.20
2018-08-12T11:41:39.690Z,31.30
2018-08-12T11:44:11.211Z,31.60
2018-08-12T11:46:40.932Z,32.20
2018-08-12T11:49:15.736Z,32.20
2018-08-12T11:51:47.578Z,31.20
2018-08-12T11:54:18.520Z,30.60
2018-08-12T11:56:50.688Z,29.70
2018-08-12T11:59:20.990Z,29.80
2018-08-12T12:01:50.398Z,29.60
2018-08-12T12:04:19.970Z,30.10
2018-08-12T12:06:49.621Z,29.50
2018-08-12T12:09:39.605Z,29.70
2018-08-12T12:12:12.956Z,30.20
2018-08-12T12:14:45.392Z,30.10
2018-08-12T12:17:19.401Z,30.50
2018-08-12T12:19:48.242Z,30.80
2018-08-12T12:22:24.019Z,30.80
2018-08-12T12:24:56.502Z,30.50
2018-08-12T12:27:27.236Z,30.50
2018-08-12T12:29:57.183Z,30.40
2018-08-12T12:32:32.477Z,30.40
2018-08-12T12:35:02.668Z,30.80
2018-08-12T12:37:32.635Z,31.00
2018-08-12T12:40:06.323Z,30.80
2018-08-12T12:42:35.343Z,29.80
2018-08-12T12:45:06.580Z,30.00
2018-08-12T12:48:55.856Z,30.20
2018-08-12T12:51:27.606Z,30.50
2018-08-12T12:53:58.199Z,30.20
2018-08-12T12:56:30.357Z,29.70
2018-08-12T12:59:05.215Z,29.50
2018-08-12T13:01:37.566Z,29.40
2018-08-12T13:04:06.715Z,29.60
2018-08-12T13:06:41.680Z,29.50
2018-08-12T13:09:14.292Z,29.40
2018-08-12T13:11:48.487Z,29.70
2018-08-12T13:14:18.491Z,29.90
2018-08-12T13:16:52.272Z,29.10
2018-08-12T13:19:22.343Z,28.50
2018-08-12T13:21:55.530Z,28.90
2018-08-12T13:24:29.142Z,29.10
2018-08-12T13:27:01.128Z,29.40
2018-08-12T13:29:31.249Z,28.90
2018-08-12T13:32:01.240Z,28.30
2018-08-12T13:34:32.132Z,28.20
2018-08-12T13:37:04.534Z,28.50
2018-08-12T13:39:34.448Z,28.80
2018-08-12T13:42:05.442Z,28.70
2018-08-12T13:44:35.655Z,28.30
2018-08-12T13:47:06.626Z,28.00
2018-08-12T13:49:35.839Z,28.20
2018-08-12T13:52:08.282Z,28.30
2018-08-12T13:54:39.829Z,28.30
2018-08-12T13:57:09.493Z,28.30
2018-08-12T13:59:38.521Z,28.30
2018-08-12T14:02:11.096Z,28.10
2018-08-12T14:04:41.134Z,28.20
2018-08-12T14:07:11.423Z,28.30
2018-08-12T14:09:41.763Z,28.40
2018-08-12T14:12:11.544Z,28.30
2018-08-12T14:14:40.411Z,28.10
2018-08-12T14:17:10.136Z,28.20
2018-08-12T14:19:39.951Z,28.30
2018-08-12T14:22:09.608Z,28.20
2018-08-12T14:24:39.284Z,27.80
2018-08-12T14:27:09.611Z,27.90
2018-08-12T14:29:42.677Z,28.00
2018-08-12T14:32:12.140Z,28.00
2018-08-12T14:34:46.076Z,27.40
2018-08-12T14:37:16.154Z,27.40
2018-08-12T14:39:49.164Z,27.40
2018-08-12T14:42:19.270Z,27.70
2018-08-12T14:44:49.082Z,27.70
2018-08-12T14:47:19.666Z,27.40
2018-08-12T14:49:52.234Z,27.50
2018-08-12T14:52:23.278Z,27.40
2018-08-12T14:54:52.636Z,27.20
2018-08-12T14:57:24.209Z,27.10
2018-08-12T14:59:54.117Z,27.00
2018-08-12T15:02:27.164Z,27.20
2018-08-12T15:05:03.701Z,27.40
2018-08-12T15:07:54.558Z,27.40
2018-08-12T15:10:25.261Z,27.30
2018-08-12T15:12:58.611Z,27.10
2018-08-12T15:15:40.136Z,26.90
2018-08-12T15:18:09.842Z,26.80
2018-08-12T15:20:39.154Z,26.80
2018-08-12T15:23:10.559Z,26.80
2018-08-12T15:25:42.971Z,26.90
2018-08-12T15:28:14.322Z,26.80
2018-08-12T15:30:46.202Z,27.00
2018-08-12T15:33:21.364Z,27.10
2018-08-12T15:35:52.505Z,27.10
2018-08-12T15:38:26.538Z,27.10
2018-08-12T15:40:57.353Z,27.10
2018-08-12T15:43:26.292Z,26.90
2018-08-12T15:45:57.135Z,26.70
2018-08-12T15:48:26.851Z,26.70
2018-08-12T15:50:57.525Z,26.70
2018-08-12T15:53:27.338Z,26.60
2018-08-12T15:55:58.411Z,26.50
2018-08-12T15:58:29.690Z,26.30
2018-08-12T16:00:59.652Z,26.20
2018-08-12T16:03:29.207Z,26.20
2018-08-12T16:05:58.535Z,26.30
2018-08-12T16:08:28.172Z,26.40
2018-08-12T16:10:59.046Z,26.30
2018-08-12T16:13:28.133Z,26.40
2018-08-12T16:15:58.464Z,26.40
2018-08-12T16:18:28.220Z,26.30
2018-08-12T16:20:57.166Z,26.10
2018-08-12T16:23:27.564Z,26.10
2018-08-12T16:25:56.705Z,26.10
2018-08-12T16:28:25.585Z,26.00
2018-08-12T16:30:54.642Z,25.90
2018-08-12T16:33:24.171Z,25.90
2018-08-12T16:35:53.879Z,25.90
2018-08-12T16:38:23.807Z,25.90
2018-08-12T16:40:53.269Z,25.70
2018-08-12T16:43:22.267Z,25.80
2018-08-12T16:45:51.201Z,25.80
2018-08-12T16:48:20.166Z,25.70
2018-08-12T16:50:50.958Z,25.70
2018-08-12T16:53:20.599Z,25.70
2018-08-12T16:55:52.132Z,25.70
2018-08-12T16:58:24.296Z,25.60
2018-08-12T17:00:53.449Z,25.30
2018-08-12T17:03:25.544Z,25.40
2018-08-12T17:05:56.326Z,25.10
2018-08-12T17:08:29.027Z,24.90
2018-08-12T17:10:59.448Z,24.90
2018-08-12T17:13:29.138Z,24.80
2018-08-12T17:15:59.137Z,24.90
2018-08-12T17:18:30.479Z,24.80
2018-08-12T17:21:07.367Z,24.70
2018-08-12T17:23:42.253Z,24.60
2018-08-12T17:26:11.221Z,24.50
2018-08-12T17:28:40.163Z,24.60
2018-08-12T17:31:09.626Z,24.50
2018-08-12T17:33:39.127Z,24.40
2018-08-12T17:36:08.077Z,24.40
2018-08-12T17:38:38.240Z,24.20
2018-08-12T17:41:08.287Z,24.20
2018-08-12T17:43:38.158Z,24.20
2018-08-12T17:46:07.411Z,24.10
2018-08-12T17:48:37.195Z,24.10
2018-08-12T17:51:07.776Z,24.00
2018-08-12T17:53:39.994Z,23.90
2018-08-12T17:56:09.123Z,23.90
2018-08-12T17:58:41.612Z,23.90
2018-08-12T18:01:12.935Z,23.80
2018-08-12T18:03:45.958Z,23.60
2018-08-12T18:06:17.390Z,23.50
2018-08-12T18:08:46.736Z,23.40
2018-08-12T18:11:16.376Z,23.20
2018-08-12T18:13:46.312Z,23.10
2018-08-12T18:16:27.760Z,23.10
2018-08-12T18:19:01.671Z,23.00
2018-08-12T18:21:31.250Z,22.90
2018-08-12T18:24:01.365Z,22.60
2018-08-12T18:26:31.826Z,22.50
2018-08-12T18:29:02.007Z,22.40
2018-08-12T18:31:32.188Z,22.00
2018-08-12T18:34:01.337Z,21.90
2018-08-12T18:36:31.468Z,21.70
2018-08-12T18:39:03.193Z,21.60
2018-08-12T18:41:33.703Z,21.60
2018-08-12T18:44:03.249Z,21.50
2018-08-12T18:46:41.932Z,21.30
2018-08-12T18:49:10.789Z,21.20
2018-08-12T18:51:42.307Z,21.00
2018-08-12T18:54:14.680Z,20.90
2018-08-12T18:56:45.701Z,21.00
2018-08-12T18:59:16.111Z,20.90
2018-08-12T19:01:44.998Z,20.80
2018-08-12T19:04:17.667Z,20.70
2018-08-12T19:06:48.132Z,20.60
2018-08-12T19:09:20.614Z,20.70
2018-08-12T19:11:49.822Z,20.50
2018-08-12T19:14:20.654Z,20.30
2018-08-12T19:16:51.211Z,20.20
2018-08-12T19:19:22.566Z,20.00
2018-08-12T19:21:59.332Z,19.90
2018-08-12T19:24:29.571Z,19.90
2018-08-12T19:26:59.634Z,19.90
2018-08-12T19:29:28.659Z,19.90
2018-08-12T19:31:57.554Z,19.80
2018-08-12T19:37:06.093Z,19.80
2018-08-12T19:39:37.105Z,19.90
2018-08-12T19:42:07.413Z,19.90
2018-08-12T19:44:41.536Z,19.90
2018-08-12T19:47:15.821Z,19.90
2018-08-12T19:49:45.698Z,20.00
2018-08-12T19:52:15.374Z,19.90
2018-08-12T19:54:44.813Z,19.80
2018-08-12T19:57:14.297Z,19.80
2018-08-12T19:59:43.354Z,19.80
2018-08-12T20:02:16.548Z,19.90
2018-08-12T20:04:47.416Z,19.80
2018-08-12T20:07:16.377Z,19.80
2018-08-12T20:09:47.601Z,19.80
2018-08-12T20:12:18.523Z,19.80
2018-08-12T20:14:47.966Z,19.70
2018-08-12T20:17:18.327Z,19.80
2018-08-12T20:19:47.855Z,19.80
2018-08-12T20:22:17.163Z,19.80
2018-08-12T20:24:46.347Z,19.60
2018-08-12T20:27:24.591Z,19.60
2018-08-12T20:29:54.203Z,19.50
2018-08-12T20:32:23.406Z,19.40
2018-08-12T20:34:52.273Z,19.50
2018-08-12T20:37:21.160Z,19.60
2018-08-12T20:39:52.207Z,19.80
2018-08-12T20:42:24.290Z,19.80
2018-08-12T20:44:56.130Z,19.80
2018-08-12T20:47:27.224Z,19.90
2018-08-12T20:49:56.392Z,19.90
2018-08-12T20:52:32.558Z,19.90
2018-08-12T20:55:05.275Z,19.90
2018-08-12T20:57:36.320Z,19.90
2018-08-12T21:01:29.626Z,20.00
2018-08-12T21:04:03.530Z,20.00
2018-08-12T21:06:33.233Z,19.90
2018-08-12T21:09:08.140Z,19.90
2018-08-12T21:11:38.219Z,19.80
2018-08-12T21:14:23.391Z,19.60
2018-08-12T21:16:53.684Z,19.60
2018-08-12T21:19:30.150Z,19.70
2018-08-12T21:22:01.123Z,19.90
2018-08-12T21:24:31.310Z,20.00
2018-08-12T21:27:01.116Z,20.00
2018-08-12T21:29:32.469Z,20.10
2018-08-12T21:32:01.627Z,20.20
2018-08-12T21:34:35.298Z,20.20
2018-08-12T21:37:04.953Z,20.20
2018-08-12T21:39:34.271Z,20.20
2018-08-12T21:42:08.451Z,20.10
2018-08-12T21:44:40.118Z,20.00
2018-08-12T21:47:09.747Z,20.00
2018-08-12T21:49:38.950Z,19.90
2018-08-12T21:52:08.770Z,20.00
2018-08-12T21:54:37.609Z,20.00
2018-08-12T21:57:08.411Z,19.90
2018-08-12T21:59:45.109Z,19.70
2018-08-12T22:02:14.925Z,19.50
2018-08-12T22:04:44.556Z,19.40
2018-08-12T22:07:14.230Z,19.20
2018-08-12T22:09:45.151Z,18.90
2018-08-12T22:12:15.272Z,18.90
2018-08-12T22:14:44.248Z,18.80
2018-08-12T22:17:13.029Z,18.80
2018-08-12T22:19:43.208Z,18.70
2018-08-12T22:22:14.378Z,18.70
2018-08-12T22:24:44.618Z,18.60
2018-08-12T22:27:15.021Z,18.60
2018-08-12T22:29:43.816Z,18.60
2018-08-12T22:32:13.633Z,18.50
2018-08-12T22:34:45.719Z,18.40
2018-08-12T22:37:16.134Z,18.40
2018-08-12T22:39:47.698Z,18.40
2018-08-12T22:42:18.843Z,18.20
2018-08-12T22:44:48.599Z,18.20
2018-08-12T22:47:17.422Z,18.20
2018-08-12T22:49:48.638Z,18.10
2018-08-12T22:52:17.863Z,18.10
2018-08-12T22:54:47.350Z,18.00
2018-08-12T22:57:16.230Z,17.90
2018-08-12T22:59:47.551Z,17.80
2018-08-12T23:02:16.668Z,17.80
2018-08-12T23:04:46.317Z,17.70
2018-08-12T23:07:15.134Z,17.70
2018-08-12T23:09:45.375Z,17.60
2018-08-12T23:12:16.250Z,17.50
2018-08-12T23:14:47.367Z,17.50
2018-08-12T23:17:16.206Z,17.40
2018-08-12T23:19:45.331Z,17.20
2018-08-12T23:22:18.856Z,17.30
2018-08-12T23:24:47.665Z,17.30
2018-08-12T23:27:17.182Z,17.30
2018-08-12T23:29:45.990Z,17.20
2018-08-12T23:32:14.810Z,17.20
2018-08-12T23:34:43.642Z,17.20
2018-08-12T23:37:12.487Z,17.10
2018-08-12T23:39:42.157Z,17.10
2018-08-12T23:42:11.048Z,17.00
2018-08-12T23:44:39.935Z,17.00
2018-08-12T23:47:08.798Z,17.00
2018-08-12T23:49:39.586Z,17.00
2018-08-12T23:52:09.110Z,17.00
2018-08-12T23:54:38.570Z,17.00
2018-08-12T23:57:07.412Z,16.90
2018-08-12T23:59:36.290Z,16.90
